createdAt,value
2018-06-01T00:01:03.534Z,56.50
2018-06-01T00:03:06.760Z,56.60
2018-06-01T00:05:10.676Z,56.60
2018-06-01T00:07:13.871Z,56.60
2018-06-01T00:09:17.061Z,56.60
2018-06-01T00:11:20.259Z,56.60
2018-06-01T00:13:23.449Z,56.50
2018-06-01T00:15:26.627Z,56.50
2018-06-01T00:17:29.810Z,56.50
2018-06-01T00:19:33.403Z,56.60
2018-06-01T00:21:36.603Z,56.50
2018-06-01T00:23:39.803Z,56.50
2018-06-01T00:25:43.018Z,56.50
2018-06-01T00:27:46.216Z,56.60
2018-06-01T00:29:49.392Z,56.60
2018-06-01T00:31:54.330Z,56.60
2018-06-01T00:33:57.499Z,56.70
2018-06-01T00:36:01.067Z,56.80
2018-06-01T00:38:05.156Z,56.80
2018-06-01T00:40:08.321Z,56.80
2018-06-01T00:42:12.270Z,56.80
2018-06-01T00:44:15.453Z,56.70
2018-06-01T00:46:19.381Z,56.80
2018-06-01T00:48:23.352Z,56.80
2018-06-01T00:50:26.512Z,56.80
2018-06-01T00:52:30.439Z,56.80
2018-06-01T00:54:33.823Z,56.70
2018-06-01T00:56:36.985Z,56.90
2018-06-01T00:58:40.185Z,56.80
2018-06-01T01:00:43.362Z,56.90
2018-06-01T01:02:47.309Z,57.60
2018-06-01T01:04:51.580Z,57.00
2018-06-01T01:06:55.429Z,57.00
2018-06-01T01:08:59.316Z,57.00
2018-06-01T01:11:04.810Z,57.10
2018-06-01T01:13:08.322Z,56.90
2018-06-01T01:15:11.484Z,56.90
2018-06-01T01:17:14.676Z,56.90
2018-06-01T01:19:20.453Z,57.00
2018-06-01T01:21:25.095Z,56.90
2018-06-01T01:23:29.200Z,56.90
2018-06-01T01:25:35.110Z,56.80
2018-06-01T01:27:38.494Z,56.80
2018-06-01T01:29:42.539Z,56.90
2018-06-01T01:31:46.496Z,56.90
2018-06-01T01:33:50.565Z,56.90
2018-06-01T01:35:55.849Z,56.40
2018-06-01T01:37:59.151Z,56.90
2018-06-01T01:40:03.268Z,58.00
2018-06-01T01:42:07.257Z,58.00
2018-06-01T01:44:11.751Z,58.30
2018-06-01T01:46:15.044Z,57.60
2018-06-01T01:48:18.236Z,57.60
2018-06-01T01:50:21.552Z,57.60
2018-06-01T01:52:24.746Z,57.40
2018-06-01T01:54:28.951Z,57.30
2018-06-01T01:56:33.054Z,57.20
2018-06-01T01:58:36.925Z,57.20
2018-06-01T02:00:40.145Z,57.20
2018-06-01T02:02:43.307Z,57.10
2018-06-01T02:04:46.498Z,57.80
2018-06-01T02:06:50.425Z,57.20
2018-06-01T02:08:56.054Z,57.20
2018-06-01T02:11:00.032Z,57.20
2018-06-01T02:13:03.191Z,57.10
2018-06-01T02:15:07.256Z,57.10
2018-06-01T02:17:10.512Z,57.20
2018-06-01T02:19:15.311Z,56.60
2018-06-01T02:21:20.876Z,57.20
2018-06-01T02:23:24.233Z,57.20
2018-06-01T02:25:28.188Z,57.30
2018-06-01T02:27:31.369Z,57.20
2018-06-01T02:29:34.699Z,57.20
2018-06-01T02:31:37.862Z,57.40
2018-06-01T02:33:41.028Z,57.20
2018-06-01T02:35:44.255Z,57.70
2018-06-01T02:37:48.179Z,57.90
2018-06-01T02:39:52.135Z,57.80
2018-06-01T02:41:55.300Z,57.80
2018-06-01T02:43:58.465Z,57.70
2018-06-01T02:46:01.668Z,57.70
2018-06-01T02:48:04.834Z,57.70
2018-06-01T02:50:08.809Z,57.70
2018-06-01T02:52:11.968Z,57.60
2018-06-01T02:54:15.928Z,57.60
2018-06-01T02:56:19.108Z,57.50
2018-06-01T02:58:23.034Z,57.50
2018-06-01T03:00:26.990Z,57.40
2018-06-01T03:02:30.154Z,57.40
2018-06-01T03:04:33.387Z,57.30
2018-06-01T03:06:37.343Z,57.40
2018-06-01T03:08:40.521Z,57.40
2018-06-01T03:10:44.467Z,57.30
2018-06-01T03:12:47.643Z,57.30
2018-06-01T03:14:51.914Z,57.90
2018-06-01T03:16:55.118Z,57.30
2018-06-01T03:18:58.276Z,57.30
2018-06-01T03:21:01.482Z,57.20
2018-06-01T03:23:04.663Z,57.20
2018-06-01T03:25:07.858Z,57.20
2018-06-01T03:27:11.010Z,57.70
2018-06-01T03:29:15.160Z,57.60
2018-06-01T03:31:19.121Z,57.60
2018-06-01T03:33:22.291Z,57.60
2018-06-01T03:35:26.244Z,57.50
2018-06-01T03:37:29.439Z,57.50
2018-06-01T03:39:33.396Z,57.50
2018-06-01T03:41:36.600Z,57.50
2018-06-01T03:43:39.780Z,57.50
2018-06-01T03:45:43.743Z,57.50
2018-06-01T03:47:46.911Z,57.50
2018-06-01T03:49:50.879Z,57.50
2018-06-01T03:51:54.050Z,57.50
2018-06-01T03:53:57.990Z,57.30
2018-06-01T03:56:01.180Z,57.30
2018-06-01T03:58:05.119Z,57.70
2018-06-01T04:00:09.138Z,57.70
2018-06-01T04:02:12.842Z,57.70
2018-06-01T04:04:16.794Z,57.60
2018-06-01T04:06:19.969Z,57.50
2018-06-01T04:08:24.843Z,57.50
2018-06-01T04:10:28.180Z,57.50
2018-06-01T04:12:32.193Z,57.60
2018-06-01T04:14:35.673Z,57.60
2018-06-01T04:16:38.852Z,57.80
2018-06-01T04:18:42.052Z,57.70
2018-06-01T04:20:45.261Z,57.70
2018-06-01T04:22:48.415Z,57.90
2018-06-01T04:24:51.588Z,58.40
2018-06-01T04:26:55.732Z,58.30
2018-06-01T04:28:58.914Z,58.90
2018-06-01T04:31:02.128Z,58.70
2018-06-01T04:33:05.275Z,58.50
2018-06-01T04:35:08.481Z,59.20
2018-06-01T04:37:11.631Z,59.20
2018-06-01T04:39:15.757Z,58.80
2018-06-01T04:41:18.987Z,58.70
2018-06-01T04:43:22.173Z,58.70
2018-06-01T04:45:25.370Z,58.70
2018-06-01T04:47:29.315Z,59.50
2018-06-01T04:49:32.508Z,59.50
2018-06-01T04:51:35.991Z,59.30
2018-06-01T04:53:39.147Z,60.20
2018-06-01T04:55:42.332Z,60.20
2018-06-01T04:57:46.307Z,60.00
2018-06-01T04:59:49.774Z,60.00
2018-06-01T05:01:53.729Z,61.70
2018-06-01T05:03:56.923Z,61.80
2018-06-01T05:06:00.143Z,62.10
2018-06-01T05:08:03.330Z,62.20
2018-06-01T05:10:07.308Z,62.80
2018-06-01T05:12:11.236Z,62.70
2018-06-01T05:14:14.391Z,62.80
2018-06-01T05:16:18.367Z,63.90
2018-06-01T05:18:21.536Z,63.90
2018-06-01T05:20:24.750Z,63.40
2018-06-01T05:22:27.959Z,63.00
2018-06-01T05:24:31.142Z,62.80
2018-06-01T05:26:36.287Z,62.60
2018-06-01T05:28:40.442Z,62.50
2018-06-01T05:30:44.467Z,62.60
2018-06-01T05:32:48.386Z,62.60
2018-06-01T05:34:52.318Z,62.70
2018-06-01T05:36:57.145Z,62.40
2018-06-01T05:39:01.072Z,62.50
2018-06-01T05:41:05.028Z,62.30
2018-06-01T05:43:08.189Z,62.30
2018-06-01T05:45:11.345Z,62.00
2018-06-01T05:47:14.574Z,61.90
2018-06-01T05:49:17.797Z,61.60
2018-06-01T05:51:20.976Z,61.90
2018-06-01T05:53:24.159Z,61.70
2018-06-01T05:55:28.112Z,62.70
2018-06-01T05:57:31.323Z,62.80
2018-06-01T05:59:34.481Z,62.80
2018-06-01T06:01:37.695Z,62.30
2018-06-01T06:03:40.867Z,61.90
2018-06-01T06:05:44.043Z,62.50
2018-06-01T06:07:47.243Z,61.70
2018-06-01T06:09:51.167Z,61.80
2018-06-01T06:11:54.370Z,61.70
2018-06-01T06:13:58.299Z,63.00
2018-06-01T06:16:02.259Z,62.60
2018-06-01T06:18:05.447Z,62.60
2018-06-01T06:20:08.631Z,62.50
2018-06-01T06:22:12.592Z,62.30
2018-06-01T06:24:15.772Z,62.30
2018-06-01T06:26:20.855Z,62.70
2018-06-01T06:28:24.015Z,62.70
2018-06-01T06:30:27.205Z,62.70
2018-06-01T06:32:30.848Z,63.10
2018-06-01T06:34:34.094Z,62.60
2018-06-01T06:36:37.312Z,62.90
2018-06-01T06:38:40.731Z,62.60
2018-06-01T06:40:43.939Z,62.80
2018-06-01T06:42:47.120Z,62.60
2018-06-01T06:44:51.042Z,62.20
2018-06-01T06:46:54.265Z,62.20
2018-06-01T06:48:57.460Z,62.70
2018-06-01T06:51:00.952Z,63.20
2018-06-01T06:53:04.149Z,62.80
2018-06-01T06:55:07.308Z,62.50
2018-06-01T06:57:10.511Z,62.70
2018-06-01T06:59:13.666Z,62.40
2018-06-01T07:01:16.883Z,63.20
2018-06-01T07:03:20.988Z,63.00
2018-06-01T07:05:24.186Z,62.90
2018-06-01T07:07:27.380Z,62.80
2018-06-01T07:09:30.573Z,62.70
2018-06-01T07:11:34.571Z,63.30
2018-06-01T07:13:37.760Z,63.20
2018-06-01T07:15:41.112Z,63.10
2018-06-01T07:17:45.080Z,62.50
2018-06-01T07:19:48.255Z,62.50
2018-06-01T07:21:51.456Z,62.70
2018-06-01T07:23:55.417Z,63.70
2018-06-01T07:25:58.611Z,63.80
2018-06-01T07:28:01.799Z,63.80
2018-06-01T07:30:05.752Z,63.60
2018-06-01T07:32:08.959Z,63.50
2018-06-01T07:34:12.159Z,63.00
2018-06-01T07:36:15.322Z,62.80
2018-06-01T07:38:18.623Z,62.70
2018-06-01T07:40:21.771Z,62.40
2018-06-01T07:42:25.736Z,64.00
2018-06-01T07:44:28.902Z,63.90
2018-06-01T07:46:32.861Z,64.70
2018-06-01T07:48:36.084Z,64.80
2018-06-01T07:50:39.254Z,64.20
2018-06-01T07:52:43.218Z,63.80
2018-06-01T07:54:46.389Z,63.70
2018-06-01T07:56:50.337Z,64.00
2018-06-01T07:58:53.536Z,63.90
2018-06-01T08:00:56.707Z,64.30
2018-06-01T08:02:59.922Z,64.90
2018-06-01T08:05:03.075Z,64.80
2018-06-01T08:07:06.233Z,65.10
2018-06-01T08:09:09.424Z,65.10
2018-06-01T08:11:12.603Z,65.20
2018-06-01T08:13:15.842Z,64.80
2018-06-01T08:15:19.018Z,64.20
2018-06-01T08:17:22.215Z,63.80
2018-06-01T08:19:25.412Z,63.80
2018-06-01T08:21:30.119Z,63.60
2018-06-01T08:23:33.434Z,63.50
2018-06-01T08:25:36.608Z,63.20
2018-06-01T08:27:39.787Z,63.00
2018-06-01T08:29:43.725Z,63.10
2018-06-01T08:31:46.896Z,62.90
2018-06-01T08:33:50.184Z,63.00
2018-06-01T08:35:53.357Z,63.70
2018-06-01T08:37:56.550Z,62.70
2018-06-01T08:40:01.621Z,63.50
2018-06-01T08:42:04.800Z,63.60
2018-06-01T08:44:08.755Z,64.00
2018-06-01T08:46:11.912Z,64.10
2018-06-01T08:48:15.098Z,64.10
2018-06-01T08:50:18.281Z,63.80
2018-06-01T08:52:22.697Z,64.50
2018-06-01T08:54:26.676Z,63.80
2018-06-01T08:56:29.840Z,63.80
2018-06-01T08:58:32.999Z,63.70
2018-06-01T09:00:36.212Z,63.50
2018-06-01T09:02:39.388Z,63.90
2018-06-01T09:04:42.571Z,64.30
2018-06-01T09:06:45.748Z,64.20
2018-06-01T09:08:49.067Z,63.90
2018-06-01T09:10:53.005Z,63.80
2018-06-01T09:12:56.935Z,63.50
2018-06-01T09:15:00.139Z,63.50
2018-06-01T09:17:04.078Z,64.30
2018-06-01T09:19:07.279Z,64.30
2018-06-01T09:21:11.204Z,64.00
2018-06-01T09:23:14.400Z,64.00
2018-06-01T09:25:18.498Z,63.60
2018-06-01T09:27:22.312Z,63.60
2018-06-01T09:29:25.518Z,64.60
2018-06-01T09:31:28.704Z,64.80
2018-06-01T09:33:31.990Z,64.20
2018-06-01T09:35:35.959Z,64.00
2018-06-01T09:37:39.146Z,64.00
2018-06-01T09:39:42.402Z,63.90
2018-06-01T09:41:45.561Z,63.70
2018-06-01T09:43:48.752Z,63.50
2018-06-01T09:45:52.716Z,64.20
2018-06-01T09:47:55.880Z,64.10
2018-06-01T09:49:59.814Z,63.90
2018-06-01T09:52:03.740Z,64.30
2018-06-01T09:54:07.692Z,63.70
2018-06-01T09:56:10.859Z,63.50
2018-06-01T09:58:14.777Z,64.80
2018-06-01T10:00:18.731Z,64.20
2018-06-01T10:02:21.886Z,64.00
2018-06-01T10:04:25.073Z,63.80
2018-06-01T10:06:28.251Z,64.80
2018-06-01T10:08:33.605Z,64.50
2018-06-01T10:10:37.560Z,64.50
2018-06-01T10:12:40.718Z,65.20
2018-06-01T10:14:43.903Z,64.50
2018-06-01T10:16:47.067Z,64.40
2018-06-01T10:18:51.036Z,64.60
2018-06-01T10:20:54.971Z,64.40
2018-06-01T10:22:58.150Z,64.30
2018-06-01T10:25:01.328Z,64.20
2018-06-01T10:27:05.255Z,64.70
2018-06-01T10:29:09.181Z,64.70
2018-06-01T10:31:12.487Z,64.80
2018-06-01T10:33:16.417Z,66.40
2018-06-01T10:35:20.373Z,65.70
2018-06-01T10:37:23.565Z,65.70
2018-06-01T10:39:26.936Z,65.40
2018-06-01T10:41:30.926Z,64.80
2018-06-01T10:43:34.087Z,64.80
2018-06-01T10:45:38.037Z,64.10
2018-06-01T10:47:41.196Z,64.10
2018-06-01T10:49:44.419Z,64.10
2018-06-01T10:51:47.571Z,63.70
2018-06-01T10:53:50.820Z,63.60
2018-06-01T10:55:53.991Z,63.20
2018-06-01T10:57:57.152Z,62.90
2018-06-01T11:00:00.338Z,62.90
2018-06-01T11:02:03.525Z,62.90
2018-06-01T11:04:07.137Z,62.60
2018-06-01T11:06:10.320Z,63.10
2018-06-01T11:08:13.487Z,62.50
2018-06-01T11:10:16.686Z,62.30
2018-06-01T11:12:19.842Z,62.10
2018-06-01T11:14:23.040Z,61.90
2018-06-01T11:16:27.275Z,61.80
2018-06-01T11:18:30.421Z,62.00
2018-06-01T11:20:33.584Z,62.30
2018-06-01T11:22:36.766Z,62.20
2018-06-01T11:24:39.974Z,62.20
2018-06-01T11:26:43.152Z,62.10
2018-06-01T11:28:47.435Z,61.90
2018-06-01T11:30:50.655Z,61.80
2018-06-01T11:32:53.821Z,61.80
2018-06-01T11:34:57.035Z,61.80
2018-06-01T11:37:00.203Z,61.50
2018-06-01T11:39:03.355Z,61.50
2018-06-01T11:41:07.535Z,61.70
2018-06-01T11:43:11.493Z,61.60
2018-06-01T11:45:14.669Z,61.60
2018-06-01T11:47:19.148Z,61.80
2018-06-01T11:49:22.310Z,61.80
2018-06-01T11:51:26.307Z,61.40
2018-06-01T11:53:29.476Z,61.40
2018-06-01T11:55:32.658Z,61.10
2018-06-01T11:57:36.584Z,61.30
2018-06-01T11:59:40.511Z,61.40
2018-06-01T12:01:44.013Z,61.40
2018-06-01T12:03:47.871Z,61.70
2018-06-01T12:05:51.084Z,61.70
2018-06-01T12:07:54.315Z,62.10
2018-06-01T12:09:57.478Z,62.40
2018-06-01T12:12:01.439Z,62.50
2018-06-01T12:14:04.642Z,62.50
2018-06-01T12:16:08.081Z,62.80
2018-06-01T12:18:11.240Z,62.70
2018-06-01T12:20:14.441Z,63.00
2018-06-01T12:22:18.366Z,62.60
2018-06-01T12:24:22.285Z,62.50
2018-06-01T12:26:26.247Z,62.40
2018-06-01T12:28:29.411Z,62.30
2018-06-01T12:30:32.608Z,62.40
2018-06-01T12:32:35.761Z,63.30
2018-06-01T12:34:38.930Z,62.60
2018-06-01T12:36:42.130Z,62.40
2018-06-01T12:38:45.286Z,63.20
2018-06-01T12:40:48.453Z,62.40
2018-06-01T12:42:51.639Z,62.40
2018-06-01T12:44:55.563Z,62.80
2018-06-01T12:46:58.744Z,62.70
2018-06-01T12:49:01.908Z,62.70
2018-06-01T12:51:05.104Z,63.00
2018-06-01T12:53:08.328Z,64.00
2018-06-01T12:55:11.487Z,63.10
2018-06-01T12:57:14.670Z,63.60
2018-06-01T12:59:17.875Z,63.20
2018-06-01T13:01:21.076Z,63.00
2018-06-01T13:03:25.045Z,62.80
2018-06-01T13:05:28.569Z,62.80
2018-06-01T13:07:31.769Z,63.00
2018-06-01T13:09:34.927Z,63.70
2018-06-01T13:11:38.967Z,64.60
2018-06-01T13:13:42.879Z,64.60
2018-06-01T13:15:46.056Z,64.60
2018-06-01T13:17:49.279Z,64.30
2018-06-01T13:19:52.443Z,64.10
2018-06-01T13:21:55.628Z,64.40
2018-06-01T13:23:58.805Z,64.40
2018-06-01T13:26:02.153Z,64.10
2018-06-01T13:28:06.095Z,63.70
2018-06-01T13:30:09.259Z,63.70
2018-06-01T13:32:12.442Z,63.40
2018-06-01T13:34:15.604Z,63.50
2018-06-01T13:36:18.769Z,63.40
2018-06-01T13:38:21.959Z,63.20
2018-06-01T13:40:25.130Z,63.20
2018-06-01T13:42:28.797Z,63.00
2018-06-01T13:44:32.724Z,62.70
2018-06-01T13:46:36.674Z,62.30
2018-06-01T13:48:39.819Z,62.80
2018-06-01T13:50:43.031Z,62.00
2018-06-01T13:52:46.199Z,61.80
2018-06-01T13:54:49.364Z,61.90
2018-06-01T13:56:52.560Z,62.40
2018-06-01T13:58:55.716Z,62.90
2018-06-01T14:00:58.875Z,62.80
2018-06-01T14:03:02.063Z,62.50
2018-06-01T14:05:05.230Z,62.30
2018-06-01T14:07:09.059Z,62.20
2018-06-01T14:09:12.235Z,62.00
2018-06-01T14:11:15.414Z,61.90
2018-06-01T14:13:19.330Z,61.90
2018-06-01T14:15:23.283Z,61.90
2018-06-01T14:17:26.471Z,61.90
2018-06-01T14:19:30.398Z,61.90
2018-06-01T14:21:33.578Z,62.80
2018-06-01T14:23:37.520Z,62.10
2018-06-01T14:25:41.451Z,61.80
2018-06-01T14:27:45.409Z,61.70
2018-06-01T14:29:49.999Z,61.50
2018-06-01T14:31:53.191Z,61.40
2018-06-01T14:33:56.349Z,61.80
2018-06-01T14:35:59.537Z,62.20
2018-06-01T14:38:03.501Z,62.50
2018-06-01T14:40:06.655Z,62.50
2018-06-01T14:42:09.838Z,62.50
2018-06-01T14:44:13.764Z,62.20
2018-06-01T14:46:16.933Z,62.10
2018-06-01T14:48:20.107Z,62.00
2018-06-01T14:50:23.263Z,61.90
2018-06-01T14:52:26.486Z,61.90
2018-06-01T14:54:29.725Z,61.80
2018-06-01T14:56:32.877Z,61.90
2018-06-01T14:58:36.083Z,61.40
2018-06-01T15:00:39.240Z,61.40
2018-06-01T15:02:42.415Z,61.80
2018-06-01T15:04:45.576Z,61.80
2018-06-01T15:06:49.571Z,61.60
2018-06-01T15:08:52.748Z,61.40
2018-06-01T15:10:55.919Z,61.20
2018-06-01T15:12:59.104Z,61.20
2018-06-01T15:15:02.263Z,61.30
2018-06-01T15:17:06.237Z,61.30
2018-06-01T15:19:09.619Z,61.20
2018-06-01T15:21:12.795Z,61.40
2018-06-01T15:23:16.746Z,61.70
2018-06-01T15:25:19.900Z,61.20
2018-06-01T15:27:23.967Z,61.10
2018-06-01T15:29:27.891Z,60.90
2018-06-01T15:31:31.819Z,60.90
2018-06-01T15:33:35.768Z,60.80
2018-06-01T15:35:38.933Z,60.80
2018-06-01T15:37:43.384Z,60.60
2018-06-01T15:39:47.853Z,61.00
2018-06-01T15:41:51.056Z,60.90
2018-06-01T15:43:54.244Z,60.90
2018-06-01T15:45:58.171Z,61.00
2018-06-01T15:48:02.129Z,61.70
2018-06-01T15:50:05.330Z,61.50
2018-06-01T15:52:08.491Z,61.20
2018-06-01T15:54:11.694Z,61.30
2018-06-01T15:56:14.895Z,61.50
2018-06-01T15:58:18.086Z,61.50
2018-06-01T16:00:21.273Z,61.50
2018-06-01T16:02:24.470Z,61.50
2018-06-01T16:04:27.647Z,61.50
2018-06-01T16:06:31.594Z,61.50
2018-06-01T16:08:34.776Z,61.40
2018-06-01T16:10:38.724Z,61.50
2018-06-01T16:12:42.740Z,61.30
2018-06-01T16:14:45.878Z,61.20
2018-06-01T16:16:50.219Z,60.90
2018-06-01T16:18:53.408Z,60.90
2018-06-01T16:20:57.335Z,61.30
2018-06-01T16:23:01.296Z,61.40
2018-06-01T16:25:04.458Z,61.40
2018-06-01T16:27:08.390Z,60.70
2018-06-01T16:29:12.355Z,60.60
2018-06-01T16:31:15.539Z,60.60
2018-06-01T16:33:18.767Z,60.60
2018-06-01T16:35:21.916Z,60.60
2018-06-01T16:37:25.076Z,60.60
2018-06-01T16:39:28.496Z,60.40
2018-06-01T16:41:31.700Z,60.50
2018-06-01T16:43:34.881Z,60.30
2018-06-01T16:45:38.824Z,60.10
2018-06-01T16:47:41.979Z,60.00
2018-06-01T16:49:45.163Z,59.90
2018-06-01T16:51:48.319Z,59.90
2018-06-01T16:53:51.582Z,59.90
2018-06-01T16:55:54.745Z,60.60
2018-06-01T16:57:58.718Z,60.20
2018-06-01T17:00:01.973Z,60.20
2018-06-01T17:02:05.936Z,60.30
2018-06-01T17:04:09.135Z,59.90
2018-06-01T17:06:12.300Z,59.80
2018-06-01T17:08:15.476Z,59.70
2018-06-01T17:10:18.671Z,59.90
2018-06-01T17:12:21.843Z,59.90
2018-06-01T17:14:25.020Z,59.90
2018-06-01T17:16:28.200Z,60.00
2018-06-01T17:18:31.383Z,60.10
2018-06-01T17:20:35.809Z,60.10
2018-06-01T17:22:39.068Z,60.10
2018-06-01T17:24:42.241Z,60.30
2018-06-01T17:26:45.414Z,60.10
2018-06-01T17:28:48.737Z,60.00
2018-06-01T17:30:52.933Z,60.00
2018-06-01T17:32:56.185Z,59.90
2018-06-01T17:35:00.216Z,59.90
2018-06-01T17:37:04.250Z,59.90
2018-06-01T17:39:08.176Z,59.70
2018-06-01T17:41:11.653Z,59.70
2018-06-01T17:43:14.985Z,59.50
2018-06-01T17:45:18.178Z,59.50
2018-06-01T17:47:21.344Z,59.50
2018-06-01T17:49:24.633Z,59.50
2018-06-01T17:51:27.946Z,59.40
2018-06-01T17:53:31.847Z,59.40
2018-06-01T17:55:35.034Z,59.50
2018-06-01T17:57:38.197Z,59.40
2018-06-01T17:59:41.383Z,59.60
2018-06-01T18:01:44.536Z,59.50
2018-06-01T18:03:47.753Z,59.60
2018-06-01T18:05:52.186Z,59.80
2018-06-01T18:07:55.521Z,60.00
2018-06-01T18:09:58.860Z,60.40
2018-06-01T18:12:02.088Z,60.60
2018-06-01T18:14:06.065Z,60.20
2018-06-01T18:16:09.283Z,60.20
2018-06-01T18:18:13.054Z,60.10
2018-06-01T18:20:17.968Z,60.30
2018-06-01T18:22:22.964Z,60.10
2018-06-01T18:24:27.482Z,59.90
2018-06-01T18:26:34.017Z,59.90
2018-06-01T18:28:38.569Z,59.90
2018-06-01T18:30:42.945Z,59.80
2018-06-01T18:32:47.454Z,59.80
2018-06-01T18:34:51.815Z,60.50
2018-06-01T18:36:56.137Z,59.90
2018-06-01T18:38:59.379Z,59.90
2018-06-01T18:41:02.568Z,59.90
2018-06-01T18:43:07.621Z,59.90
2018-06-01T18:45:11.966Z,59.80
2018-06-01T18:47:16.242Z,59.80
2018-06-01T18:49:20.565Z,59.80
2018-06-01T18:51:24.008Z,59.80
2018-06-01T18:53:27.171Z,60.10
2018-06-01T18:55:30.354Z,60.00
2018-06-01T18:57:35.484Z,60.10
2018-06-01T18:59:39.692Z,60.10
2018-06-01T19:01:45.048Z,60.00
2018-06-01T19:03:50.253Z,59.90
2018-06-01T19:05:54.686Z,59.40
2018-06-01T19:08:00.705Z,59.90
2018-06-01T19:10:07.039Z,60.00
2018-06-01T19:12:12.200Z,59.90
2018-06-01T19:14:16.609Z,59.90
2018-06-01T19:16:19.871Z,59.90
2018-06-01T19:18:25.024Z,59.80
2018-06-01T19:20:29.151Z,59.80
2018-06-01T19:22:33.613Z,59.80
2018-06-01T19:24:38.154Z,59.80
2018-06-01T19:26:41.836Z,59.70
2018-06-01T19:28:45.004Z,59.70
2018-06-01T19:30:48.399Z,59.70
2018-06-01T19:32:52.478Z,59.60
2018-06-01T19:34:56.246Z,59.70
2018-06-01T19:36:59.533Z,59.60
2018-06-01T19:39:02.745Z,59.60
2018-06-01T19:41:06.958Z,59.60
2018-06-01T19:43:10.285Z,60.10
2018-06-01T19:45:13.449Z,60.10
2018-06-01T19:47:17.406Z,60.00
2018-06-01T19:49:21.626Z,60.90
2018-06-01T19:51:24.953Z,60.90
2018-06-01T19:53:29.074Z,61.80
2018-06-01T19:55:33.455Z,61.30
2018-06-01T19:57:37.063Z,61.30
2018-06-01T19:59:40.949Z,61.50
2018-06-01T20:01:45.040Z,61.20
2018-06-01T20:03:49.919Z,60.90
2018-06-01T20:05:54.217Z,61.90
2018-06-01T20:07:57.801Z,60.70
2018-06-01T20:10:00.952Z,60.70
2018-06-01T20:12:05.011Z,60.50
2018-06-01T20:14:09.277Z,60.50
2018-06-01T20:16:13.538Z,60.40
2018-06-01T20:18:16.917Z,60.30
2018-06-01T20:20:20.139Z,60.30
2018-06-01T20:22:23.350Z,60.40
2018-06-01T20:24:27.427Z,60.40
2018-06-01T20:26:30.742Z,61.00
2018-06-01T20:28:36.660Z,60.70
2018-06-01T20:30:40.951Z,60.70
2018-06-01T20:32:44.348Z,60.60
2018-06-01T20:34:47.527Z,60.40
2018-06-01T20:36:50.753Z,60.30
2018-06-01T20:38:53.975Z,60.30
2018-06-01T20:40:57.890Z,60.90
2018-06-01T20:43:01.883Z,60.10
2018-06-01T20:45:05.032Z,60.10
2018-06-01T20:47:08.209Z,60.00
2018-06-01T20:49:11.483Z,60.00
2018-06-01T20:51:16.515Z,60.00
2018-06-01T20:53:20.461Z,59.80
2018-06-01T20:55:23.617Z,59.80
2018-06-01T20:57:26.813Z,59.90
2018-06-01T20:59:29.977Z,59.90
2018-06-01T21:01:33.896Z,60.00
2018-06-01T21:03:37.856Z,60.10
2018-06-01T21:05:41.012Z,60.10
2018-06-01T21:07:44.215Z,60.10
2018-06-01T21:09:48.249Z,60.70
2018-06-01T21:11:52.968Z,59.70
2018-06-01T21:13:57.223Z,59.70
2018-06-01T21:16:00.863Z,59.60
2018-06-01T21:18:04.110Z,59.60
2018-06-01T21:20:07.275Z,59.60
2018-06-01T21:22:11.220Z,59.80
2018-06-01T21:24:14.417Z,59.80
2018-06-01T21:26:18.419Z,59.70
2018-06-01T21:28:21.635Z,59.60
2018-06-01T21:30:24.790Z,59.60
2018-06-01T21:32:27.955Z,59.80
2018-06-01T21:34:31.619Z,59.80
2018-06-01T21:36:35.181Z,59.90
2018-06-01T21:38:38.420Z,60.10
2018-06-01T21:40:42.377Z,60.20
2018-06-01T21:42:47.653Z,60.30
2018-06-01T21:44:50.908Z,60.80
2018-06-01T21:46:54.904Z,61.00
2018-06-01T21:48:59.038Z,61.00
2018-06-01T21:51:02.582Z,61.50
2018-06-01T21:53:06.212Z,61.50
2018-06-01T21:55:09.427Z,61.20
2018-06-01T21:57:12.591Z,62.00
2018-06-01T21:59:18.058Z,62.20
2018-06-01T22:01:21.231Z,62.30
2018-06-01T22:03:24.417Z,62.50
2018-06-01T22:05:28.674Z,62.20
2018-06-01T22:07:31.855Z,62.50
2018-06-01T22:09:36.055Z,62.30
2018-06-01T22:11:39.262Z,62.50
2018-06-01T22:13:44.757Z,62.30
2018-06-01T22:15:48.972Z,62.10
2018-06-01T22:17:52.291Z,62.10
2018-06-01T22:19:57.369Z,62.40
2018-06-01T22:22:02.574Z,62.50
2018-06-01T22:24:06.542Z,62.90
2018-06-01T22:26:10.192Z,62.80
2018-06-01T22:28:14.695Z,62.60
2018-06-01T22:30:20.212Z,62.70
2018-06-01T22:32:23.468Z,62.40
2018-06-01T22:34:27.748Z,62.00
2018-06-01T22:36:31.916Z,62.30
2018-06-01T22:38:36.123Z,62.30
2018-06-01T22:40:39.339Z,62.30
2018-06-01T22:42:43.263Z,62.30
2018-06-01T22:44:47.319Z,63.90
2018-06-01T22:46:51.430Z,63.10
2018-06-01T22:48:55.088Z,63.00
2018-06-01T22:50:58.251Z,63.20
2018-06-01T22:53:03.090Z,63.20
2018-06-01T22:55:06.994Z,63.10
2018-06-01T22:57:10.745Z,63.10
2018-06-01T22:59:15.386Z,63.20
2018-06-01T23:01:19.967Z,63.20
2018-06-01T23:03:23.716Z,63.40
2018-06-01T23:05:27.554Z,63.00
2018-06-01T23:07:30.743Z,62.70
2018-06-01T23:09:34.701Z,62.90
2018-06-01T23:11:38.639Z,63.80
2018-06-01T23:13:43.116Z,63.00
2018-06-01T23:15:46.906Z,62.90
2018-06-01T23:17:51.413Z,63.00
2018-06-01T23:19:55.196Z,63.00
2018-06-01T23:21:58.375Z,63.10
2018-06-01T23:24:02.295Z,62.60
2018-06-01T23:26:06.907Z,62.30
2018-06-01T23:28:10.089Z,62.30
2018-06-01T23:30:13.939Z,62.20
2018-06-01T23:32:17.910Z,62.20
2018-06-01T23:34:22.439Z,62.10
2018-06-01T23:36:26.387Z,62.20
2018-06-01T23:38:30.109Z,62.20
2018-06-01T23:40:33.287Z,62.20
2018-06-01T23:42:37.342Z,62.20
2018-06-01T23:44:41.224Z,62.20
2018-06-01T23:46:44.985Z,62.20
2018-06-01T23:48:48.849Z,62.10
2018-06-01T23:50:52.691Z,62.20
2018-06-01T23:52:56.444Z,62.00
2018-06-01T23:55:00.266Z,62.10
2018-06-01T23:57:04.016Z,61.90
2018-06-01T23:59:07.704Z,61.80
